createdAt,value
2022-10-12T00:06:05.053Z,100241.06
2022-10-12T00:12:07.076Z,100230.44
2022-10-12T00:18:08.968Z,100238.16
2022-10-12T00:24:10.908Z,100247.06
2022-10-12T00:30:13.439Z,100234.75
2022-10-12T00:36:18.391Z,100247.72
2022-10-12T00:42:21.081Z,100244.91
2022-10-12T00:48:23.627Z,100246.59
2022-10-12T00:54:35.011Z,100242.00
2022-10-12T01:00:38.974Z,100242.72
2022-10-12T01:06:41.458Z,100238.94
2022-10-12T01:12:47.102Z,100232.50
2022-10-12T01:18:58.470Z,100237.00
2022-10-12T01:25:22.451Z,100241.59
2022-10-12T01:39:27.073Z,100232.13
2022-10-12T01:45:28.997Z,100233.81
2022-10-12T01:52:21.854Z,100234.94
2022-10-12T01:58:38.654Z,100235.91
2022-10-12T02:04:52.052Z,100224.75
2022-10-12T02:11:10.505Z,100227.94
2022-10-12T02:17:17.184Z,100221.94
2022-10-12T02:23:21.684Z,100214.50
2022-10-12T02:29:36.470Z,100205.38
2022-10-12T02:35:54.604Z,100203.97
2022-10-12T02:42:03.991Z,100200.31
2022-10-12T02:48:09.208Z,100189.13
2022-10-12T02:54:12.269Z,100182.25
2022-10-12T03:00:14.977Z,100179.50
2022-10-12T03:06:16.925Z,100180.88
2022-10-12T03:12:18.849Z,100183.09
2022-10-12T03:18:20.760Z,100181.53
2022-10-12T03:24:22.757Z,100178.84
2022-10-12T03:30:24.628Z,100177.56
2022-10-12T03:36:29.514Z,100170.09
2022-10-12T03:42:31.534Z,100179.19
2022-10-12T03:48:33.612Z,100185.97
2022-10-12T03:55:06.953Z,100156.38
2022-10-12T04:01:08.922Z,100161.16
2022-10-12T04:07:10.935Z,100167.56
2022-10-12T04:13:12.838Z,100161.81
2022-10-12T04:19:14.875Z,100160.47
2022-10-12T04:25:16.856Z,100162.00
2022-10-12T04:31:18.963Z,100164.72
2022-10-12T04:37:20.847Z,100163.34
2022-10-12T04:43:22.789Z,100158.13
2022-10-12T04:49:24.685Z,100150.56
2022-10-12T04:55:27.269Z,100154.25
2022-10-12T05:01:29.230Z,100166.00
2022-10-12T05:07:31.150Z,100153.16
2022-10-12T05:13:33.349Z,100146.75
2022-10-12T05:19:37.251Z,100148.16
2022-10-12T05:25:39.252Z,100153.84
2022-10-12T05:31:41.349Z,100149.81
2022-10-12T05:37:43.283Z,100145.59
2022-10-12T05:43:45.173Z,100136.97
2022-10-12T05:49:47.037Z,100145.16
2022-10-12T05:55:57.851Z,100142.56
2022-10-12T06:01:59.761Z,100146.72
2022-10-12T06:08:01.722Z,100144.59
2022-10-12T06:14:04.560Z,100147.13
2022-10-12T06:20:07.232Z,100140.66
2022-10-12T06:26:09.172Z,100141.13
2022-10-12T06:32:11.066Z,100145.75
2022-10-12T06:38:13.014Z,100148.91
2022-10-12T06:44:14.897Z,100158.19
2022-10-12T06:50:16.991Z,100152.66
2022-10-12T06:56:18.876Z,100151.88
2022-10-12T07:02:20.773Z,100155.09
2022-10-12T07:08:22.646Z,100146.59
2022-10-12T07:14:24.597Z,100139.97
2022-10-12T07:20:26.582Z,100131.50
2022-10-12T07:26:29.098Z,100132.25
2022-10-12T07:32:31.001Z,100141.31
2022-10-12T07:38:33.355Z,100154.69
2022-10-12T07:44:35.734Z,100145.09
2022-10-12T07:50:38.588Z,100139.38
2022-10-12T07:56:40.541Z,100133.97
2022-10-12T08:02:42.528Z,100136.88
2022-10-12T08:08:51.518Z,100142.91
2022-10-12T08:14:53.418Z,100143.50
2022-10-12T08:20:55.375Z,100140.69
2022-10-12T08:27:01.186Z,100134.53
2022-10-12T08:33:06.924Z,100137.69
2022-10-12T08:39:12.137Z,100132.97
2022-10-12T08:45:21.549Z,100143.75
2022-10-12T08:51:44.027Z,100140.97
2022-10-12T08:57:49.195Z,100138.19
2022-10-12T09:04:16.432Z,100144.81
2022-10-12T09:10:45.981Z,100143.81
2022-10-12T09:16:51.325Z,100138.88
2022-10-12T09:23:18.125Z,100130.25
2022-10-12T09:29:38.778Z,100131.75
2022-10-12T09:35:46.918Z,100136.03
2022-10-12T09:41:52.651Z,100126.66
2022-10-12T09:48:16.419Z,100123.78
2022-10-12T09:54:23.344Z,100124.16
2022-10-12T10:00:58.453Z,100123.88
2022-10-12T10:07:35.352Z,100110.47
2022-10-12T10:13:38.789Z,100104.16
2022-10-12T10:19:47.925Z,100098.56
2022-10-12T10:26:20.085Z,100106.41
2022-10-12T10:32:29.134Z,100109.25
2022-10-12T10:38:45.571Z,100112.75
2022-10-12T10:45:08.679Z,100098.78
2022-10-12T10:51:10.598Z,100114.19
2022-10-12T10:57:22.261Z,100101.28
2022-10-12T11:03:47.100Z,100108.19
2022-10-12T11:09:57.899Z,100096.38
2022-10-12T11:16:27.560Z,100090.56
2022-10-12T11:22:50.246Z,100087.81
2022-10-12T11:29:21.230Z,100090.78
2022-10-12T11:35:36.700Z,100093.91
2022-10-12T11:48:01.059Z,100087.28
2022-10-12T11:54:41.256Z,100075.69
2022-10-12T12:01:10.631Z,100076.75
2022-10-12T12:07:46.504Z,100066.94
2022-10-12T12:13:48.647Z,100069.25
2022-10-12T12:20:23.880Z,100064.94
2022-10-12T12:26:29.568Z,100049.00
2022-10-12T12:32:53.877Z,100049.44
2022-10-12T12:38:56.374Z,100030.06
2022-10-12T12:45:18.410Z,100023.19
2022-10-12T12:51:37.707Z,100014.72
2022-10-12T12:58:12.729Z,100005.91
2022-10-12T13:04:36.389Z,100006.41
2022-10-12T13:11:27.993Z,99989.50
2022-10-12T13:17:51.692Z,99990.91
2022-10-12T13:24:25.461Z,99990.16
2022-10-12T13:30:39.157Z,99984.72
2022-10-12T13:37:01.697Z,99980.19
2022-10-12T13:43:31.743Z,99959.47
2022-10-12T13:49:42.169Z,99954.84
2022-10-12T13:56:05.791Z,99952.78
2022-10-12T14:02:31.248Z,99936.22
2022-10-12T14:08:35.200Z,99929.97
2022-10-12T14:14:40.368Z,99932.63
2022-10-12T14:20:42.370Z,99920.91
2022-10-12T14:26:52.426Z,99918.28
2022-10-12T14:33:08.037Z,99914.88
2022-10-12T14:39:14.321Z,99914.19
2022-10-12T14:45:26.437Z,99912.16
2022-10-12T14:51:28.779Z,99907.56
2022-10-12T14:57:32.311Z,99899.50
2022-10-12T15:03:34.163Z,99890.84
2022-10-12T15:09:36.069Z,99894.22
2022-10-12T15:15:47.002Z,99886.75
2022-10-12T15:21:49.004Z,99885.47
2022-10-12T15:27:51.076Z,99878.97
2022-10-12T15:33:53.267Z,99866.13
2022-10-12T15:39:55.495Z,99865.03
2022-10-12T15:45:59.560Z,99857.28
2022-10-12T15:52:19.982Z,99850.97
2022-10-12T15:58:59.518Z,99844.22
2022-10-12T16:05:02.471Z,99851.38
2022-10-12T16:11:37.758Z,99837.75
2022-10-12T16:17:40.341Z,99830.53
2022-10-12T16:23:42.339Z,99826.06
2022-10-12T16:29:44.224Z,99826.16
2022-10-12T16:35:46.262Z,99821.91
2022-10-12T16:41:48.141Z,99812.22
2022-10-12T16:47:50.561Z,99820.38
2022-10-12T16:53:56.207Z,99819.00
2022-10-12T16:59:58.774Z,99809.59
2022-10-12T17:06:00.947Z,99818.31
2022-10-12T17:12:03.525Z,99818.19
2022-10-12T17:18:15.446Z,99808.66
2022-10-12T17:24:20.132Z,99823.88
2022-10-12T17:30:23.841Z,99806.38
2022-10-12T17:36:59.077Z,99802.00
2022-10-12T17:43:01.426Z,99812.00
2022-10-12T17:49:04.954Z,99808.28
2022-10-12T17:55:19.198Z,99805.13
2022-10-12T18:01:35.401Z,99803.03
2022-10-12T18:07:40.982Z,99799.50
2022-10-12T18:13:48.417Z,99796.38
2022-10-12T18:19:50.486Z,99799.59
2022-10-12T18:25:55.422Z,99782.69
2022-10-12T18:31:57.880Z,99791.72
2022-10-12T18:38:02.763Z,99791.09
2022-10-12T18:44:05.158Z,99792.31
2022-10-12T18:50:07.972Z,99798.84
2022-10-12T18:56:10.940Z,99806.38
2022-10-12T19:02:17.471Z,99812.59
2022-10-12T19:08:19.809Z,99803.53
2022-10-12T19:14:22.100Z,99801.88
2022-10-12T19:20:24.036Z,99786.25
2022-10-12T19:26:27.998Z,99786.09
2022-10-12T19:32:30.020Z,99802.81
2022-10-12T19:38:32.045Z,99814.72
2022-10-12T19:44:34.337Z,99810.56
2022-10-12T19:50:36.349Z,99801.06
2022-10-12T19:56:48.905Z,99805.59
2022-10-12T20:02:54.976Z,99807.00
2022-10-12T20:09:03.829Z,99812.69
2022-10-12T20:15:06.756Z,99791.56
2022-10-12T20:21:11.316Z,99789.97
2022-10-12T20:27:13.298Z,99787.22
2022-10-12T20:33:16.264Z,99792.03
2022-10-12T20:39:19.180Z,99793.09
2022-10-12T20:45:21.194Z,99783.28
2022-10-12T20:51:36.202Z,99797.56
2022-10-12T20:57:39.737Z,99792.50
2022-10-12T21:03:42.385Z,99788.81
2022-10-12T21:09:44.920Z,99794.59
2022-10-12T21:15:54.805Z,99798.84
2022-10-12T21:21:56.706Z,99794.31
2022-10-12T21:27:58.566Z,99788.06
2022-10-12T21:34:05.161Z,99785.50
2022-10-12T21:40:09.450Z,99783.44
2022-10-12T21:46:21.931Z,99781.66
2022-10-12T21:52:23.888Z,99781.16
2022-10-12T21:58:26.351Z,99772.41
2022-10-12T22:04:28.772Z,99774.50
2022-10-12T22:10:30.733Z,99765.44
2022-10-12T22:16:36.771Z,99764.97
2022-10-12T22:22:38.764Z,99757.47
2022-10-12T22:28:44.805Z,99762.69
2022-10-12T22:34:46.773Z,99761.72
2022-10-12T22:40:55.703Z,99751.56
2022-10-12T22:46:57.806Z,99757.66
2022-10-12T22:52:59.696Z,99760.44
2022-10-12T22:59:07.241Z,99746.00
2022-10-12T23:05:10.965Z,99742.78
2022-10-12T23:11:24.569Z,99737.25
2022-10-12T23:17:26.740Z,99744.00
2022-10-12T23:23:29.138Z,99731.56
2022-10-12T23:29:31.025Z,99729.81
2022-10-12T23:35:33.849Z,99720.66
2022-10-12T23:41:35.776Z,99732.13
2022-10-12T23:47:38.074Z,99738.59
2022-10-12T23:53:42.053Z,99734.13
2022-10-12T23:59:47.111Z,99727.66
